createdAt,value
2019-03-03T00:00:43.390Z,2.06
2019-03-03T00:01:47.594Z,2.09
2019-03-03T00:02:51.670Z,2.13
2019-03-03T00:03:55.942Z,2.10
2019-03-03T00:05:00.049Z,2.12
2019-03-03T00:06:04.155Z,2.06
2019-03-03T00:07:08.415Z,2.07
2019-03-03T00:08:12.438Z,2.17
2019-03-03T00:09:16.757Z,2.15
2019-03-03T00:10:20.923Z,2.12
2019-03-03T00:11:25.137Z,2.16
2019-03-03T00:12:29.380Z,2.14
2019-03-03T00:13:33.517Z,2.09
2019-03-03T00:14:37.823Z,2.20
2019-03-03T00:15:42.020Z,2.25
2019-03-03T00:16:46.130Z,2.12
2019-03-03T00:17:50.373Z,2.21
2019-03-03T00:18:54.485Z,2.25
2019-03-03T00:19:58.675Z,2.22
2019-03-03T00:21:02.941Z,2.19
2019-03-03T00:22:07.155Z,2.20
2019-03-03T00:23:11.309Z,2.25
2019-03-03T00:24:15.471Z,2.27
2019-03-03T00:25:19.647Z,2.15
2019-03-03T00:26:23.776Z,2.16
2019-03-03T00:27:28.049Z,2.14
2019-03-03T00:28:32.236Z,2.13
2019-03-03T00:29:36.610Z,2.13
2019-03-03T00:30:40.577Z,2.16
2019-03-03T00:31:44.753Z,2.13
2019-03-03T00:32:48.967Z,2.13
2019-03-03T00:33:53.204Z,2.14
2019-03-03T00:34:57.430Z,2.13
2019-03-03T00:36:01.426Z,2.23
2019-03-03T00:37:05.728Z,2.19
2019-03-03T00:38:09.955Z,2.24
2019-03-03T00:39:14.195Z,2.28
2019-03-03T00:40:18.295Z,2.31
2019-03-03T00:41:22.490Z,2.33
2019-03-03T00:42:26.686Z,2.31
2019-03-03T00:43:30.928Z,2.31
2019-03-03T00:44:35.137Z,2.24
2019-03-03T00:45:39.243Z,2.25
2019-03-03T00:46:43.449Z,2.29
2019-03-03T00:47:47.607Z,2.31
2019-03-03T00:48:51.849Z,2.32
2019-03-03T00:49:56.072Z,2.33
2019-03-03T00:51:00.260Z,2.30
2019-03-03T00:52:04.370Z,2.32
2019-03-03T00:53:08.607Z,2.32
2019-03-03T00:54:12.827Z,2.33
2019-03-03T00:55:17.058Z,2.29
2019-03-03T00:56:21.189Z,2.37
2019-03-03T00:57:25.341Z,2.34
2019-03-03T00:58:29.596Z,2.34
2019-03-03T00:59:33.795Z,2.31
2019-03-03T01:00:38.013Z,2.37
2019-03-03T01:01:42.219Z,2.38
2019-03-03T01:02:46.520Z,2.41
2019-03-03T01:03:50.553Z,2.33
2019-03-03T01:04:54.755Z,2.31
2019-03-03T01:05:59.020Z,2.29
2019-03-03T01:07:03.143Z,2.31
2019-03-03T01:08:07.311Z,2.36
2019-03-03T01:09:11.598Z,2.44
2019-03-03T01:10:15.767Z,2.44
2019-03-03T01:11:19.892Z,2.51
2019-03-03T01:12:24.141Z,2.55
2019-03-03T01:13:28.305Z,2.59
2019-03-03T01:14:32.575Z,2.57
2019-03-03T01:15:36.759Z,2.62
2019-03-03T01:16:40.942Z,2.69
2019-03-03T01:17:45.110Z,2.67
2019-03-03T01:18:49.268Z,2.68
2019-03-03T01:19:53.513Z,2.69
2019-03-03T01:20:57.768Z,2.71
2019-03-03T01:22:01.984Z,2.68
2019-03-03T01:23:06.147Z,2.67
2019-03-03T01:24:10.251Z,2.67
2019-03-03T01:25:14.444Z,2.69
2019-03-03T01:26:18.594Z,2.79
2019-03-03T01:27:22.749Z,2.80
2019-03-03T01:28:27.004Z,2.82
2019-03-03T01:29:31.219Z,2.83
2019-03-03T01:30:35.454Z,2.88
2019-03-03T01:31:39.647Z,2.92
2019-03-03T01:32:43.812Z,2.99
2019-03-03T01:33:47.987Z,2.99
2019-03-03T01:34:52.196Z,2.97
2019-03-03T01:35:56.346Z,3.01
2019-03-03T01:37:00.626Z,2.98
2019-03-03T01:38:04.770Z,3.03
2019-03-03T01:39:09.032Z,3.06
2019-03-03T01:40:13.237Z,3.05
2019-03-03T01:41:17.462Z,3.03
2019-03-03T01:42:21.666Z,3.09
2019-03-03T01:43:25.797Z,3.07
2019-03-03T01:44:30.063Z,3.13
2019-03-03T01:45:34.266Z,3.10
2019-03-03T01:46:38.505Z,3.05
2019-03-03T01:47:42.698Z,3.06
2019-03-03T01:48:46.918Z,3.18
2019-03-03T01:49:51.134Z,3.17
2019-03-03T01:50:55.371Z,3.24
2019-03-03T01:51:59.587Z,3.43
2019-03-03T01:53:03.703Z,3.44
2019-03-03T01:54:07.952Z,3.42
2019-03-03T01:55:12.131Z,3.49
2019-03-03T01:56:16.361Z,3.41
2019-03-03T01:57:20.597Z,3.53
2019-03-03T01:58:24.795Z,3.64
2019-03-03T01:59:28.951Z,3.50
2019-03-03T02:00:33.202Z,3.57
2019-03-03T02:01:37.380Z,3.56
2019-03-03T02:02:41.528Z,3.70
2019-03-03T02:03:45.754Z,3.72
2019-03-03T02:04:50.015Z,3.66
2019-03-03T02:05:54.218Z,3.74
2019-03-03T02:06:58.438Z,3.72
2019-03-03T02:08:02.662Z,3.73
2019-03-03T02:09:06.859Z,3.74
2019-03-03T02:10:10.985Z,3.79
2019-03-03T02:11:15.140Z,3.77
2019-03-03T02:12:19.333Z,3.91
2019-03-03T02:13:23.589Z,3.87
2019-03-03T02:14:27.699Z,3.82
2019-03-03T02:15:31.963Z,3.79
2019-03-03T02:16:36.201Z,3.88
2019-03-03T02:17:40.378Z,4.07
2019-03-03T02:18:44.599Z,3.96
2019-03-03T02:19:48.832Z,3.91
2019-03-03T02:20:53.062Z,3.92
2019-03-03T02:21:57.177Z,3.95
2019-03-03T02:23:01.442Z,3.94
2019-03-03T02:24:05.574Z,4.03
2019-03-03T02:25:09.728Z,3.98
2019-03-03T02:26:13.955Z,3.98
2019-03-03T02:27:18.139Z,4.08
2019-03-03T02:28:22.283Z,4.30
2019-03-03T02:29:26.570Z,4.23
2019-03-03T02:30:30.743Z,4.30
2019-03-03T02:31:34.874Z,4.38
2019-03-03T02:32:39.979Z,4.23
2019-03-03T02:33:43.866Z,4.38
2019-03-03T02:34:48.013Z,4.30
2019-03-03T02:35:52.234Z,4.33
2019-03-03T02:36:56.369Z,4.32
2019-03-03T02:38:00.664Z,4.20
2019-03-03T02:39:04.720Z,4.29
2019-03-03T02:40:08.928Z,4.28
2019-03-03T02:41:13.201Z,4.28
2019-03-03T02:42:17.468Z,4.41
2019-03-03T02:43:21.608Z,4.34
2019-03-03T02:44:25.830Z,4.34
2019-03-03T02:45:30.089Z,4.46
2019-03-03T02:46:34.229Z,4.37
2019-03-03T02:47:38.538Z,4.41
2019-03-03T02:48:42.696Z,4.40
2019-03-03T02:49:46.955Z,4.48
2019-03-03T02:50:51.073Z,4.43
2019-03-03T02:51:55.290Z,4.62
2019-03-03T02:52:59.517Z,4.68
2019-03-03T02:54:03.745Z,4.82
2019-03-03T02:55:07.912Z,4.81
2019-03-03T02:56:12.123Z,4.77
2019-03-03T02:57:16.363Z,4.79
2019-03-03T02:58:20.571Z,4.80
2019-03-03T02:59:24.787Z,4.80
2019-03-03T03:00:29.021Z,4.95
2019-03-03T03:01:33.184Z,4.96
2019-03-03T03:02:37.494Z,4.90
2019-03-03T03:03:41.656Z,4.94
2019-03-03T03:04:45.700Z,5.01
2019-03-03T03:05:50.085Z,4.98
2019-03-03T03:06:54.273Z,5.06
2019-03-03T03:07:58.525Z,5.10
2019-03-03T03:09:02.655Z,5.12
2019-03-03T03:10:06.941Z,5.16
2019-03-03T03:11:11.153Z,5.09
2019-03-03T03:12:15.283Z,5.08
2019-03-03T03:13:19.483Z,5.16
2019-03-03T03:14:23.772Z,5.22
2019-03-03T03:15:27.839Z,5.23
2019-03-03T03:16:32.051Z,5.21
2019-03-03T03:17:36.359Z,5.17
2019-03-03T03:18:40.490Z,5.19
2019-03-03T03:19:45.571Z,5.22
2019-03-03T03:20:49.488Z,5.27
2019-03-03T03:21:53.591Z,5.29
2019-03-03T03:22:57.851Z,5.36
2019-03-03T03:24:02.013Z,5.35
2019-03-03T03:25:06.154Z,5.36
2019-03-03T03:26:10.416Z,5.39
2019-03-03T03:27:14.581Z,5.39
2019-03-03T03:28:19.011Z,5.37
2019-03-03T03:29:23.168Z,5.38
2019-03-03T03:30:27.305Z,5.34
2019-03-03T03:31:31.506Z,5.36
2019-03-03T03:32:35.786Z,5.41
2019-03-03T03:33:40.005Z,5.43
2019-03-03T03:34:44.205Z,5.42
2019-03-03T03:35:48.446Z,5.41
2019-03-03T03:36:52.678Z,5.37
2019-03-03T03:37:56.896Z,5.37
2019-03-03T03:39:01.170Z,5.39
2019-03-03T03:40:05.413Z,5.36
2019-03-03T03:41:09.593Z,5.38
2019-03-03T03:42:13.868Z,5.36
2019-03-03T03:43:18.066Z,5.33
2019-03-03T03:44:22.292Z,5.45
2019-03-03T03:45:26.464Z,5.46
2019-03-03T03:46:30.710Z,5.54
2019-03-03T03:47:34.859Z,5.50
2019-03-03T03:48:39.210Z,5.49
2019-03-03T03:49:43.340Z,5.44
2019-03-03T03:50:47.600Z,5.46
2019-03-03T03:51:51.854Z,5.51
2019-03-03T03:52:55.993Z,5.59
2019-03-03T03:54:00.325Z,5.61
2019-03-03T03:55:04.526Z,5.70
2019-03-03T03:56:08.660Z,5.61
2019-03-03T03:57:12.829Z,5.59
2019-03-03T03:58:17.104Z,5.59
2019-03-03T03:59:21.359Z,5.57
2019-03-03T04:00:25.571Z,5.54
2019-03-03T04:01:29.770Z,5.57
2019-03-03T04:02:33.954Z,5.53
2019-03-03T04:03:38.207Z,5.52
2019-03-03T04:04:42.473Z,5.51
2019-03-03T04:05:46.728Z,5.49
2019-03-03T04:06:50.964Z,5.49
2019-03-03T04:07:55.142Z,5.51
2019-03-03T04:09:01.721Z,5.52
2019-03-03T04:10:03.589Z,5.51
2019-03-03T04:11:07.792Z,5.61
2019-03-03T04:12:12.051Z,5.64
2019-03-03T04:13:16.285Z,5.61
2019-03-03T04:14:20.558Z,5.67
2019-03-03T04:15:24.779Z,5.67
2019-03-03T04:16:29.001Z,5.70
2019-03-03T04:17:33.113Z,5.66
2019-03-03T04:18:37.412Z,5.69
2019-03-03T04:19:41.678Z,5.69
2019-03-03T04:20:45.761Z,5.74
2019-03-03T04:21:50.050Z,5.72
2019-03-03T04:22:54.263Z,5.73
2019-03-03T04:23:58.524Z,5.72
2019-03-03T04:25:02.581Z,5.73
2019-03-03T04:26:06.886Z,5.69
2019-03-03T04:27:11.938Z,5.69
2019-03-03T04:28:15.833Z,5.77
2019-03-03T04:29:19.894Z,5.76
2019-03-03T04:30:24.219Z,5.75
2019-03-03T04:31:28.364Z,5.71
2019-03-03T04:32:32.559Z,5.75
2019-03-03T04:33:36.826Z,5.81
2019-03-03T04:34:41.087Z,5.82
2019-03-03T04:35:45.214Z,5.82
2019-03-03T04:36:49.370Z,5.82
2019-03-03T04:37:53.719Z,5.87
2019-03-03T04:38:57.958Z,5.91
2019-03-03T04:40:05.234Z,5.88
2019-03-03T04:41:08.538Z,5.86
2019-03-03T04:42:12.686Z,5.93
2019-03-03T04:43:16.972Z,5.91
2019-03-03T04:44:21.173Z,5.93
2019-03-03T04:45:25.436Z,5.93
2019-03-03T04:46:29.580Z,5.95
2019-03-03T04:47:33.894Z,5.94
2019-03-03T04:48:38.107Z,6.03
2019-03-03T04:49:42.423Z,5.99
2019-03-03T04:50:46.689Z,5.99
2019-03-03T04:51:50.900Z,5.98
2019-03-03T04:52:55.096Z,6.11
2019-03-03T04:53:59.349Z,6.13
2019-03-03T04:55:03.639Z,6.14
2019-03-03T04:56:07.818Z,6.08
2019-03-03T04:57:11.915Z,6.05
2019-03-03T04:58:16.251Z,6.15
2019-03-03T04:59:20.396Z,6.12
2019-03-03T05:00:24.688Z,6.11
2019-03-03T05:01:28.840Z,6.08
2019-03-03T05:02:33.167Z,6.03
2019-03-03T05:03:37.286Z,6.06
2019-03-03T05:04:41.577Z,6.05
2019-03-03T05:05:45.731Z,6.06
2019-03-03T05:06:50.041Z,6.08
2019-03-03T05:07:54.205Z,6.05
2019-03-03T05:08:58.418Z,6.06
2019-03-03T05:10:02.555Z,6.08
2019-03-03T05:11:06.871Z,6.08
2019-03-03T05:12:11.124Z,6.15
2019-03-03T05:13:15.358Z,6.13
2019-03-03T05:14:19.607Z,6.13
2019-03-03T05:15:23.800Z,6.17
2019-03-03T05:16:27.960Z,6.20
2019-03-03T05:17:32.175Z,6.15
2019-03-03T05:18:36.446Z,6.19
2019-03-03T05:19:40.670Z,6.19
2019-03-03T05:20:44.871Z,6.26
2019-03-03T05:21:49.106Z,6.25
2019-03-03T05:22:53.383Z,6.26
2019-03-03T05:23:57.610Z,6.22
2019-03-03T05:25:01.837Z,6.27
2019-03-03T05:26:06.045Z,6.31
2019-03-03T05:27:10.233Z,6.26
2019-03-03T05:28:14.552Z,6.33
2019-03-03T05:29:18.744Z,6.28
2019-03-03T05:30:22.879Z,6.30
2019-03-03T05:31:27.102Z,6.30
2019-03-03T05:32:31.320Z,6.31
2019-03-03T05:33:35.583Z,6.27
2019-03-03T05:34:39.861Z,6.28
2019-03-03T05:35:44.112Z,6.31
2019-03-03T05:36:48.337Z,6.35
2019-03-03T05:37:52.483Z,6.35
2019-03-03T05:38:56.743Z,6.33
2019-03-03T05:40:01.029Z,6.32
2019-03-03T05:41:05.183Z,6.37
2019-03-03T05:42:09.513Z,6.40
2019-03-03T05:43:13.742Z,6.41
2019-03-03T05:44:17.869Z,6.45
2019-03-03T05:45:22.174Z,6.50
2019-03-03T05:46:26.414Z,6.50
2019-03-03T05:47:30.557Z,6.52
2019-03-03T05:48:34.849Z,6.51
2019-03-03T05:49:39.011Z,6.54
2019-03-03T05:50:43.293Z,6.55
2019-03-03T05:51:47.552Z,6.54
2019-03-03T05:52:51.689Z,6.56
2019-03-03T05:53:55.958Z,6.56
2019-03-03T05:55:00.295Z,6.58
2019-03-03T05:56:04.416Z,6.60
2019-03-03T05:57:08.627Z,6.64
2019-03-03T05:58:12.829Z,6.58
2019-03-03T05:59:17.128Z,6.60
2019-03-03T06:00:21.255Z,6.59
2019-03-03T06:01:25.528Z,6.62
2019-03-03T06:02:29.786Z,6.66
2019-03-03T06:03:33.944Z,6.65
2019-03-03T06:04:38.246Z,6.71
2019-03-03T06:05:42.495Z,6.69
2019-03-03T06:06:46.764Z,6.68
2019-03-03T06:07:51.020Z,6.67
2019-03-03T06:08:55.263Z,6.65
2019-03-03T06:09:59.522Z,6.63
2019-03-03T06:11:03.776Z,6.68
2019-03-03T06:12:08.101Z,6.67
2019-03-03T06:13:12.306Z,6.66
2019-03-03T06:14:16.476Z,6.68
2019-03-03T06:15:20.673Z,6.67
2019-03-03T06:16:24.933Z,6.72
2019-03-03T06:17:29.133Z,6.75
2019-03-03T06:18:33.414Z,6.74
2019-03-03T06:19:37.572Z,6.70
2019-03-03T06:20:41.780Z,6.70
2019-03-03T06:21:46.070Z,6.67
2019-03-03T06:22:50.316Z,6.72
2019-03-03T06:23:54.557Z,6.70
2019-03-03T06:24:58.751Z,6.72
2019-03-03T06:26:02.988Z,6.69
2019-03-03T06:27:07.275Z,6.69
2019-03-03T06:28:11.539Z,6.67
2019-03-03T06:29:15.719Z,6.71
2019-03-03T06:30:19.912Z,6.67
2019-03-03T06:31:24.190Z,6.72
2019-03-03T06:32:28.374Z,6.74
2019-03-03T06:33:32.688Z,6.76
2019-03-03T06:34:36.817Z,6.75
2019-03-03T06:35:41.124Z,6.73
2019-03-03T06:36:45.280Z,6.75
2019-03-03T06:37:49.584Z,6.76
2019-03-03T06:38:53.804Z,6.74
2019-03-03T06:39:58.089Z,6.75
2019-03-03T06:41:02.242Z,6.77
2019-03-03T06:42:06.562Z,6.79
2019-03-03T06:43:10.663Z,6.77
2019-03-03T06:44:15.012Z,6.73
2019-03-03T06:45:19.280Z,6.78
2019-03-03T06:46:23.488Z,6.85
2019-03-03T06:47:27.682Z,6.82
2019-03-03T06:48:32.002Z,6.81
2019-03-03T06:49:36.146Z,6.78
2019-03-03T06:50:40.450Z,6.81
2019-03-03T06:51:44.700Z,6.85
2019-03-03T06:52:48.899Z,6.88
2019-03-03T06:53:53.241Z,6.86
2019-03-03T06:54:57.474Z,6.85
2019-03-03T06:56:01.655Z,6.85
2019-03-03T06:57:05.943Z,6.86
2019-03-03T06:58:10.226Z,6.85
2019-03-03T06:59:14.398Z,6.85
2019-03-03T07:00:18.662Z,6.91
2019-03-03T07:01:22.936Z,6.88
2019-03-03T07:02:27.056Z,6.88
2019-03-03T07:03:31.400Z,6.91
2019-03-03T07:04:35.657Z,6.89
2019-03-03T07:05:39.916Z,6.96
2019-03-03T07:06:44.038Z,6.97
2019-03-03T07:07:48.322Z,7.00
2019-03-03T07:08:52.482Z,6.97
2019-03-03T07:09:56.656Z,6.98
2019-03-03T07:11:00.942Z,6.98
2019-03-03T07:12:05.097Z,6.97
2019-03-03T07:13:09.389Z,7.01
2019-03-03T07:14:13.641Z,7.03
2019-03-03T07:15:17.954Z,6.97
2019-03-03T07:16:22.147Z,6.99
2019-03-03T07:17:26.405Z,7.00
2019-03-03T07:18:30.708Z,7.03
2019-03-03T07:19:34.897Z,7.02
2019-03-03T07:20:39.172Z,7.01
2019-03-03T07:21:43.372Z,7.01
2019-03-03T07:22:47.558Z,7.08
2019-03-03T07:23:51.788Z,7.06
2019-03-03T07:24:55.995Z,7.07
2019-03-03T07:26:00.244Z,7.09
2019-03-03T07:27:04.485Z,7.12
2019-03-03T07:28:08.729Z,7.11
2019-03-03T07:29:13.004Z,7.05
2019-03-03T07:30:17.252Z,7.02
2019-03-03T07:31:21.506Z,7.11
2019-03-03T07:32:25.794Z,7.07
2019-03-03T07:33:29.995Z,7.03
2019-03-03T07:34:34.216Z,7.08
2019-03-03T07:35:38.466Z,7.09
2019-03-03T07:36:42.795Z,7.08
2019-03-03T07:37:47.047Z,7.11
2019-03-03T07:38:51.217Z,7.14
2019-03-03T07:39:55.510Z,7.17
2019-03-03T07:40:59.764Z,7.15
2019-03-03T07:42:03.941Z,7.12
2019-03-03T07:43:08.247Z,7.10
2019-03-03T07:44:12.537Z,7.11
2019-03-03T07:45:16.709Z,7.10
2019-03-03T07:46:20.951Z,7.11
2019-03-03T07:47:25.258Z,7.13
2019-03-03T07:48:29.392Z,7.16
2019-03-03T07:49:33.672Z,7.16
2019-03-03T07:50:37.874Z,7.14
2019-03-03T07:51:42.124Z,7.15
2019-03-03T07:52:46.303Z,7.13
2019-03-03T07:53:50.579Z,7.12
2019-03-03T07:54:54.866Z,7.17
2019-03-03T07:55:59.107Z,7.19
2019-03-03T07:57:03.300Z,7.20
2019-03-03T07:58:07.597Z,7.17
2019-03-03T07:59:11.854Z,7.17
2019-03-03T08:00:15.963Z,7.17
2019-03-03T08:01:20.255Z,7.24
2019-03-03T08:02:24.532Z,7.39
2019-03-03T08:03:28.779Z,7.41
2019-03-03T08:04:33.061Z,7.38
2019-03-03T08:05:37.193Z,7.36
2019-03-03T08:06:41.477Z,7.35
2019-03-03T08:07:45.731Z,7.33
2019-03-03T08:08:49.896Z,7.31
2019-03-03T08:09:54.143Z,7.33
2019-03-03T08:10:58.423Z,7.35
2019-03-03T08:12:02.687Z,7.36
2019-03-03T08:13:09.522Z,7.39
2019-03-03T08:14:11.115Z,7.41
2019-03-03T08:15:15.442Z,7.38
2019-03-03T08:16:19.693Z,7.37
2019-03-03T08:17:23.817Z,7.35
2019-03-03T08:18:28.130Z,7.38
2019-03-03T08:19:32.397Z,7.37
2019-03-03T08:20:36.670Z,7.36
2019-03-03T08:21:40.902Z,7.39
2019-03-03T08:22:45.095Z,7.37
2019-03-03T08:23:49.381Z,7.36
2019-03-03T08:24:53.581Z,7.38
2019-03-03T08:25:57.851Z,7.44
2019-03-03T08:27:02.031Z,7.41
2019-03-03T08:28:06.342Z,7.39
2019-03-03T08:29:10.492Z,7.43
2019-03-03T08:30:14.858Z,7.44
2019-03-03T08:31:19.023Z,7.42
2019-03-03T08:32:23.212Z,7.42
2019-03-03T08:33:27.452Z,7.44
2019-03-03T08:34:31.641Z,7.41
2019-03-03T08:35:35.896Z,7.42
2019-03-03T08:36:40.012Z,7.43
2019-03-03T08:37:44.289Z,7.47
2019-03-03T08:38:48.484Z,7.48
2019-03-03T08:39:52.782Z,7.52
2019-03-03T08:40:56.944Z,7.49
2019-03-03T08:42:01.139Z,7.49
2019-03-03T08:43:05.427Z,7.50
2019-03-03T08:44:09.586Z,7.52
2019-03-03T08:45:13.843Z,7.52
2019-03-03T08:46:18.177Z,7.52
2019-03-03T08:47:22.447Z,7.57
2019-03-03T08:48:26.651Z,7.55
2019-03-03T08:49:30.893Z,7.54
2019-03-03T08:50:35.246Z,7.59
2019-03-03T08:51:39.347Z,7.56
2019-03-03T08:52:43.660Z,7.53
2019-03-03T08:53:47.926Z,7.54
2019-03-03T08:54:52.121Z,7.54
2019-03-03T08:55:56.348Z,7.55
2019-03-03T08:57:00.667Z,7.57
2019-03-03T08:58:04.855Z,7.55
2019-03-03T08:59:09.145Z,7.56
2019-03-03T09:00:13.353Z,7.56
2019-03-03T09:01:17.582Z,7.57
2019-03-03T09:02:21.890Z,7.58
2019-03-03T09:03:26.081Z,7.58
2019-03-03T09:04:30.283Z,7.59
2019-03-03T09:05:34.562Z,7.59
2019-03-03T09:06:38.752Z,7.61
2019-03-03T09:07:43.008Z,7.66
2019-03-03T09:08:47.215Z,7.64
2019-03-03T09:09:51.514Z,7.67
2019-03-03T09:10:55.812Z,7.66
2019-03-03T09:12:00.084Z,7.65
2019-03-03T09:13:04.308Z,7.65
2019-03-03T09:14:08.485Z,7.68
2019-03-03T09:15:12.782Z,7.66
2019-03-03T09:16:17.056Z,7.67
2019-03-03T09:17:21.202Z,7.69
2019-03-03T09:18:25.549Z,7.70
2019-03-03T09:19:29.733Z,7.73
2019-03-03T09:20:34.051Z,7.73
2019-03-03T09:21:38.222Z,7.82
2019-03-03T09:22:42.515Z,7.81
2019-03-03T09:23:46.718Z,7.88
2019-03-03T09:24:51.013Z,7.85
2019-03-03T09:25:55.174Z,7.87
2019-03-03T09:26:59.510Z,7.86
2019-03-03T09:28:03.768Z,7.82
2019-03-03T09:29:08.018Z,7.85
2019-03-03T09:30:12.178Z,7.86
2019-03-03T09:31:16.372Z,7.86
2019-03-03T09:32:20.700Z,7.88
2019-03-03T09:33:24.962Z,7.90
2019-03-03T09:34:29.137Z,7.91
2019-03-03T09:35:33.469Z,7.93
2019-03-03T09:36:37.704Z,7.91
2019-03-03T09:37:42.050Z,7.93
2019-03-03T09:38:46.295Z,7.95
2019-03-03T09:39:50.498Z,7.93
2019-03-03T09:40:54.706Z,7.94
2019-03-03T09:41:58.941Z,7.96
2019-03-03T09:43:03.117Z,7.96
2019-03-03T09:44:07.422Z,7.98
2019-03-03T09:45:11.597Z,7.98
2019-03-03T09:46:15.830Z,8.00
2019-03-03T09:47:20.158Z,8.05
2019-03-03T09:48:24.308Z,8.03
2019-03-03T09:49:28.593Z,8.03
2019-03-03T09:50:32.769Z,8.03
2019-03-03T09:51:37.006Z,8.06
2019-03-03T09:52:41.232Z,8.08
2019-03-03T09:53:45.503Z,8.06
2019-03-03T09:54:50.484Z,8.05
2019-03-03T09:55:54.045Z,8.06
2019-03-03T09:56:58.194Z,8.09
2019-03-03T09:58:02.417Z,8.10
2019-03-03T09:59:06.634Z,8.10
2019-03-03T10:00:10.926Z,8.12
2019-03-03T10:01:15.171Z,8.10
2019-03-03T10:02:19.369Z,8.15
2019-03-03T10:03:23.674Z,8.16
2019-03-03T10:04:27.886Z,8.16
2019-03-03T10:05:32.093Z,8.16
2019-03-03T10:06:36.413Z,8.14
2019-03-03T10:07:40.682Z,8.16
2019-03-03T10:08:44.844Z,8.17
2019-03-03T10:09:49.106Z,8.17
2019-03-03T10:10:53.305Z,8.23
2019-03-03T10:11:57.567Z,8.24
2019-03-03T10:13:01.760Z,8.26
2019-03-03T10:14:05.984Z,8.27
2019-03-03T10:15:10.300Z,8.26
2019-03-03T10:16:14.442Z,8.26
2019-03-03T10:17:18.654Z,8.26
2019-03-03T10:18:22.881Z,8.29
2019-03-03T10:19:27.150Z,8.30
2019-03-03T10:20:31.354Z,8.25
2019-03-03T10:21:35.568Z,8.26
2019-03-03T10:22:39.881Z,8.28
2019-03-03T10:23:44.071Z,8.27
2019-03-03T10:24:48.351Z,8.26
2019-03-03T10:25:52.584Z,8.24
2019-03-03T10:26:56.825Z,8.27
2019-03-03T10:28:01.004Z,8.28
2019-03-03T10:29:05.289Z,8.27
2019-03-03T10:30:09.488Z,8.29
2019-03-03T10:31:13.719Z,8.31
2019-03-03T10:32:18.046Z,8.31
2019-03-03T10:33:22.250Z,8.34
2019-03-03T10:34:26.569Z,8.35
2019-03-03T10:35:30.817Z,8.36
2019-03-03T10:36:35.064Z,8.37
2019-03-03T10:37:39.278Z,8.37
2019-03-03T10:38:43.516Z,8.37
2019-03-03T10:39:47.810Z,8.36
2019-03-03T10:40:52.028Z,8.33
2019-03-03T10:41:56.246Z,8.34
2019-03-03T10:43:00.540Z,8.37
2019-03-03T10:44:04.760Z,8.38
2019-03-03T10:45:08.972Z,8.39
2019-03-03T10:46:13.285Z,8.39
2019-03-03T10:47:17.566Z,8.39
2019-03-03T10:48:21.887Z,8.40
2019-03-03T10:49:26.063Z,8.41
2019-03-03T10:50:30.370Z,8.44
2019-03-03T10:51:34.627Z,8.43
2019-03-03T10:52:38.827Z,8.43
2019-03-03T10:53:43.088Z,8.43
2019-03-03T10:54:47.378Z,8.44
2019-03-03T10:55:51.571Z,8.46
2019-03-03T10:56:55.863Z,8.48
2019-03-03T10:58:00.137Z,8.49
2019-03-03T10:59:04.444Z,8.50
2019-03-03T11:00:08.632Z,8.51
2019-03-03T11:01:12.848Z,8.49
2019-03-03T11:02:17.197Z,8.50
2019-03-03T11:03:21.465Z,8.51
2019-03-03T11:04:25.770Z,8.53
2019-03-03T11:05:29.980Z,8.59
2019-03-03T11:06:34.226Z,8.59
2019-03-03T11:07:38.532Z,8.59
2019-03-03T11:08:42.758Z,8.62
2019-03-03T11:09:46.993Z,8.60
2019-03-03T11:10:57.508Z,8.56
2019-03-03T11:11:55.547Z,8.56
2019-03-03T11:12:59.819Z,8.56
2019-03-03T11:14:04.290Z,8.55
2019-03-03T11:15:18.051Z,8.54
2019-03-03T11:16:12.530Z,8.57
2019-03-03T11:17:16.859Z,8.57
2019-03-03T11:18:21.046Z,8.61
2019-03-03T11:19:25.304Z,8.61
2019-03-03T11:20:29.585Z,8.59
2019-03-03T11:21:33.779Z,8.57
2019-03-03T11:22:37.971Z,8.60
2019-03-03T11:23:42.283Z,8.59
2019-03-03T11:24:46.574Z,8.57
2019-03-03T11:25:50.884Z,8.58
2019-03-03T11:26:55.166Z,8.57
2019-03-03T11:27:59.317Z,8.59
2019-03-03T11:29:03.625Z,8.58
2019-03-03T11:30:07.846Z,8.57
2019-03-03T11:31:12.065Z,8.59
2019-03-03T11:32:16.399Z,8.61
2019-03-03T11:33:20.640Z,8.59
2019-03-03T11:34:29.744Z,8.60
2019-03-03T11:35:31.329Z,8.59
2019-03-03T11:36:35.613Z,8.59
2019-03-03T11:37:39.911Z,8.60
2019-03-03T11:38:44.182Z,8.63
2019-03-03T11:39:48.417Z,8.64
2019-03-03T11:40:52.733Z,8.65
2019-03-03T11:41:57.128Z,8.67
2019-03-03T11:43:01.402Z,8.68
2019-03-03T11:44:05.660Z,8.70
2019-03-03T11:45:09.993Z,8.70
2019-03-03T11:46:14.264Z,8.70
2019-03-03T11:47:18.564Z,8.68
2019-03-03T11:48:22.959Z,8.66
2019-03-03T11:49:27.160Z,8.65
2019-03-03T11:50:31.470Z,8.65
2019-03-03T11:51:35.729Z,8.65
2019-03-03T11:52:40.046Z,8.63
2019-03-03T11:53:44.407Z,8.62
2019-03-03T11:54:48.623Z,8.61
2019-03-03T11:55:52.932Z,8.63
2019-03-03T11:56:57.224Z,8.68
2019-03-03T11:58:01.566Z,8.72
2019-03-03T11:59:05.730Z,8.71
2019-03-03T12:00:10.064Z,8.74
2019-03-03T12:01:14.345Z,8.76
2019-03-03T12:02:18.603Z,8.81
2019-03-03T12:03:22.889Z,8.84
2019-03-03T12:04:27.060Z,8.84
2019-03-03T12:05:31.441Z,8.85
2019-03-03T12:06:35.817Z,8.84
2019-03-03T12:07:40.036Z,8.86
2019-03-03T12:08:44.329Z,8.88
2019-03-03T12:09:48.440Z,8.90
2019-03-03T12:10:52.797Z,8.91
2019-03-03T12:11:57.059Z,8.92
2019-03-03T12:13:01.326Z,8.95
2019-03-03T12:14:05.649Z,8.99
2019-03-03T12:15:09.919Z,8.97
2019-03-03T12:16:14.241Z,8.98
2019-03-03T12:17:18.503Z,8.99
2019-03-03T12:18:24.727Z,8.97
2019-03-03T12:19:27.118Z,9.00
2019-03-03T12:20:31.411Z,8.99
2019-03-03T12:21:35.705Z,9.01
2019-03-03T12:22:39.984Z,9.00
2019-03-03T12:23:44.267Z,8.99
2019-03-03T12:24:48.453Z,9.01
2019-03-03T12:25:52.901Z,9.00
2019-03-03T12:26:57.124Z,9.02
2019-03-03T12:28:01.501Z,9.04
2019-03-03T12:29:05.720Z,9.03
2019-03-03T12:30:10.052Z,9.05
2019-03-03T12:31:14.296Z,9.06
2019-03-03T12:32:18.608Z,9.10
2019-03-03T12:33:22.978Z,9.10
2019-03-03T12:34:27.244Z,9.11
2019-03-03T12:35:31.533Z,9.13
2019-03-03T12:36:35.773Z,9.13
2019-03-03T12:37:40.092Z,9.14
2019-03-03T12:38:44.360Z,9.15
2019-03-03T12:39:48.630Z,9.15
2019-03-03T12:40:53.006Z,9.16
2019-03-03T12:41:57.247Z,9.18
2019-03-03T12:43:01.568Z,9.19
2019-03-03T12:44:05.842Z,9.17
2019-03-03T12:45:10.147Z,9.18
2019-03-03T12:46:14.399Z,9.18
2019-03-03T12:47:18.751Z,9.17
2019-03-03T12:48:23.037Z,9.16
2019-03-03T12:49:27.326Z,9.16
2019-03-03T12:50:31.540Z,9.16
2019-03-03T12:51:35.849Z,9.17
2019-03-03T12:52:40.205Z,9.18
2019-03-03T12:53:44.459Z,9.18
2019-03-03T12:54:48.589Z,9.19
2019-03-03T12:55:52.943Z,9.18
2019-03-03T12:56:57.200Z,9.19
2019-03-03T12:58:01.615Z,9.18
2019-03-03T12:59:05.819Z,9.19
2019-03-03T13:00:11.531Z,9.18
2019-03-03T13:01:14.459Z,9.18
2019-03-03T13:02:21.724Z,9.19
2019-03-03T13:03:25.217Z,9.16
2019-03-03T13:04:29.461Z,9.17
2019-03-03T13:05:33.645Z,9.16
2019-03-03T13:06:38.060Z,9.15
2019-03-03T13:07:42.341Z,9.14
2019-03-03T13:08:46.667Z,9.14
2019-03-03T13:09:50.852Z,9.15
2019-03-03T13:10:55.145Z,9.14
2019-03-03T13:11:59.429Z,9.12
2019-03-03T13:13:03.602Z,9.11
2019-03-03T13:14:08.007Z,9.13
2019-03-03T13:15:12.278Z,9.10
2019-03-03T13:16:16.615Z,9.10
2019-03-03T13:17:20.890Z,9.10
2019-03-03T13:18:25.179Z,9.09
2019-03-03T13:19:29.515Z,9.10
2019-03-03T13:20:33.783Z,9.10
2019-03-03T13:21:38.079Z,9.09
2019-03-03T13:22:42.367Z,9.08
2019-03-03T13:23:46.696Z,9.08
2019-03-03T13:24:51.009Z,9.08
2019-03-03T13:25:55.366Z,9.07
2019-03-03T13:26:59.588Z,9.07
2019-03-03T13:28:03.881Z,9.06
2019-03-03T13:29:08.199Z,9.05
2019-03-03T13:30:12.431Z,9.06
2019-03-03T13:31:16.745Z,9.06
2019-03-03T13:32:21.023Z,9.06
2019-03-03T13:33:25.284Z,9.06
2019-03-03T13:34:29.604Z,9.06
2019-03-03T13:35:33.864Z,9.06
2019-03-03T13:36:38.128Z,9.06
2019-03-03T13:37:42.410Z,9.07
2019-03-03T13:38:46.785Z,9.06
2019-03-03T13:39:51.123Z,9.04
2019-03-03T13:40:55.355Z,9.04
2019-03-03T13:41:59.702Z,9.03
2019-03-03T13:43:04.108Z,9.02
2019-03-03T13:44:08.378Z,9.03
2019-03-03T13:45:12.655Z,9.03
2019-03-03T13:46:16.937Z,9.02
2019-03-03T13:47:21.204Z,9.01
2019-03-03T13:48:25.491Z,9.01
2019-03-03T13:49:29.762Z,9.03
2019-03-03T13:50:34.036Z,9.01
2019-03-03T13:51:38.353Z,8.98
2019-03-03T13:52:42.626Z,8.96
2019-03-03T13:53:46.894Z,8.95
2019-03-03T13:54:51.164Z,8.97
2019-03-03T13:55:55.446Z,8.97
2019-03-03T13:56:59.829Z,8.96
2019-03-03T13:58:04.045Z,8.96
2019-03-03T13:59:08.314Z,8.96
2019-03-03T14:00:12.605Z,8.99
2019-03-03T14:01:16.884Z,8.98
2019-03-03T14:02:21.144Z,9.01
2019-03-03T14:03:25.471Z,8.98
2019-03-03T14:04:29.646Z,8.97
2019-03-03T14:05:34.014Z,8.97
2019-03-03T14:06:38.284Z,8.96
2019-03-03T14:07:42.567Z,8.97
2019-03-03T14:08:46.832Z,8.95
2019-03-03T14:09:51.125Z,8.94
2019-03-03T14:10:55.439Z,8.96
2019-03-03T14:11:59.705Z,8.97
2019-03-03T14:13:03.998Z,8.99
2019-03-03T14:14:08.293Z,8.95
2019-03-03T14:15:12.568Z,8.94